コルカタ の空港の天気 - METARとTAF

ネータージー・スバース・チャンドラ・ボース国際空港 ( VECC / CCU ) - インド コルカタ
飛行場実況気象(Metar)
観測時間01/19 02:30 IST (01/18 21:00 UTC)
風向・風速北 3m/s
視程2000m
天気現象もや
なし
気温13℃
湿度77%
気圧1012hPa
METARVECC 182100Z 01006KT 2000 BR NSC 13/09 Q1012 NOSIG
過去の天気等 Google飛行場航空写真 Wunderground天気予報

過去48時間のMETAR

飛行場予報(TAF)
発表時間: 1/18 22:30 IST (1/18 17:00 UTC)
予報対象時間: 18日23時 IST ~ 20日5時 IST
風向・風速静穏
視程1,800m
天気現象もや
なし
19日5時 IST ~ 19日7時 IST に徐々に
視程1,000m
天気現象地霧
19日8時 IST ~ 19日10時 IST に徐々に
風向・風速北 3m/s
視程1,800m
天気現象もや
19日11時 IST ~ 19日13時 IST に徐々に
視程3,200m
天気現象煙霧
19日17時 IST ~ 19日19時 IST に徐々に
風向・風速静穏
視程2,400m
天気現象煙霧
19日23時 IST ~ 20日1時 IST に徐々に
視程1,500m
天気現象もや
TAF VECC 181700Z 1818/1924 00000KT 1800 BR NSC
BECMG 1900/1902 1000 MIFG
BECMG 1903/1905 36005KT 1800 BR
BECMG 1906/1908 3200 HZ
BECMG 1912/1914 00000KT 2400 HZ
BECMG 1918/1920 1500 BR